createdAt,value
2023-01-28T00:00:54.208Z,4.93
2023-01-28T00:03:22.317Z,5.07
2023-01-28T00:05:50.301Z,5.03
2023-01-28T00:08:18.083Z,5.30
2023-01-28T00:10:46.075Z,5.60
2023-01-28T00:13:15.600Z,6.77
2023-01-28T00:15:45.201Z,6.50
2023-01-28T00:18:13.716Z,6.70
2023-01-28T00:20:41.598Z,6.57
2023-01-28T00:23:09.482Z,6.40
2023-01-28T00:25:37.413Z,7.17
2023-01-28T00:28:05.522Z,6.63
2023-01-28T00:30:33.560Z,6.10
2023-01-28T00:33:02.839Z,6.87
2023-01-28T00:35:31.025Z,6.80
2023-01-28T00:37:59.760Z,6.40
2023-01-28T00:40:29.328Z,6.93
2023-01-28T00:42:57.891Z,6.60
2023-01-28T00:45:25.723Z,7.10
2023-01-28T00:47:53.622Z,6.73
2023-01-28T00:50:22.991Z,6.27
2023-01-28T00:52:50.880Z,7.00
2023-01-28T00:55:19.955Z,6.57
2023-01-28T00:57:48.756Z,7.10
2023-01-28T01:00:19.108Z,7.33
2023-01-28T01:02:47.050Z,7.53
2023-01-28T01:05:15.714Z,7.40
2023-01-28T01:07:45.674Z,7.43
2023-01-28T01:10:15.691Z,7.43
2023-01-28T01:12:44.727Z,7.53
2023-01-28T01:15:13.424Z,8.87
2023-01-28T01:17:43.981Z,8.20
2023-01-28T01:20:15.551Z,8.07
2023-01-28T01:22:43.489Z,7.87
2023-01-28T01:25:13.944Z,8.13
2023-01-28T01:27:45.054Z,8.37
2023-01-28T01:30:14.180Z,8.10
2023-01-28T01:32:42.249Z,7.43
2023-01-28T01:35:11.755Z,7.30
2023-01-28T01:37:40.860Z,7.03
2023-01-28T01:40:10.428Z,7.23
2023-01-28T01:42:39.574Z,6.07
2023-01-28T01:45:08.777Z,5.13
2023-01-28T01:47:42.689Z,4.30
2023-01-28T01:50:18.673Z,5.10
2023-01-28T01:52:49.505Z,5.67
2023-01-28T01:55:22.331Z,5.40
2023-01-28T01:57:56.589Z,4.80
2023-01-28T02:00:25.490Z,5.10
2023-01-28T02:02:54.612Z,5.00
2023-01-28T02:05:23.578Z,4.37
2023-01-28T02:11:38.292Z,4.47
2023-01-28T02:14:14.453Z,3.83
2023-01-28T02:16:42.284Z,4.07
2023-01-28T02:19:13.374Z,4.57
2023-01-28T02:22:00.350Z,3.70
2023-01-28T02:25:01.262Z,4.20
2023-01-28T02:27:36.575Z,3.80
2023-01-28T02:30:12.137Z,4.00
2023-01-28T02:32:46.376Z,4.60
2023-01-28T02:35:19.668Z,4.40
2023-01-28T02:37:54.428Z,4.17
2023-01-28T02:40:29.822Z,5.00
2023-01-28T02:42:58.247Z,5.87
2023-01-28T02:45:52.969Z,5.30
2023-01-28T02:48:23.697Z,6.13
2023-01-28T02:51:00.727Z,5.60
2023-01-28T02:53:44.836Z,5.63
2023-01-28T02:56:22.040Z,7.10
2023-01-28T02:58:59.759Z,6.23
2023-01-28T03:01:36.757Z,5.83
2023-01-28T03:04:08.663Z,6.77
2023-01-28T03:06:41.508Z,6.40
2023-01-28T03:09:29.338Z,5.73
2023-01-28T03:12:19.495Z,5.67
2023-01-28T03:15:09.380Z,6.20
2023-01-28T03:18:00.906Z,6.90
2023-01-28T03:20:53.970Z,6.50
2023-01-28T03:23:51.411Z,6.50
2023-01-28T03:26:41.613Z,6.53
2023-01-28T03:29:30.904Z,6.57
2023-01-28T03:32:17.930Z,6.20
2023-01-28T03:35:05.839Z,6.80
2023-01-28T03:37:35.085Z,6.83
2023-01-28T03:40:18.903Z,7.50
2023-01-28T03:42:46.715Z,7.67
2023-01-28T03:45:34.878Z,7.90
2023-01-28T03:48:05.238Z,7.87
2023-01-28T03:50:35.386Z,7.97
2023-01-28T03:53:16.420Z,7.70
2023-01-28T03:55:54.682Z,8.20
2023-01-28T03:58:23.051Z,8.20
2023-01-28T04:00:52.049Z,8.20
2023-01-28T04:03:21.644Z,8.10
2023-01-28T04:06:04.227Z,7.87
2023-01-28T04:08:54.495Z,7.40
2023-01-28T04:11:28.351Z,7.97
2023-01-28T04:13:57.795Z,7.57
2023-01-28T04:16:26.920Z,8.40
2023-01-28T04:18:55.315Z,8.20
2023-01-28T04:21:24.645Z,8.63
2023-01-28T04:23:53.295Z,8.47
2023-01-28T04:26:21.127Z,8.70
2023-01-28T04:28:48.921Z,8.57
2023-01-28T04:31:27.261Z,8.27
2023-01-28T04:34:15.199Z,8.70
2023-01-28T04:37:16.640Z,8.87
2023-01-28T04:39:56.519Z,8.33
2023-01-28T04:42:54.281Z,8.33
2023-01-28T04:45:48.072Z,8.60
2023-01-28T04:48:34.739Z,8.50
2023-01-28T04:51:17.876Z,8.70
2023-01-28T04:54:07.557Z,8.33
2023-01-28T04:56:36.618Z,9.13
2023-01-28T04:59:05.283Z,8.37
2023-01-28T05:01:35.818Z,8.33
2023-01-28T05:04:05.722Z,8.70
2023-01-28T05:06:35.919Z,8.93
2023-01-28T05:09:11.083Z,8.50
2023-01-28T05:11:39.366Z,8.97
2023-01-28T05:14:08.305Z,9.17
2023-01-28T05:16:46.044Z,8.73
2023-01-28T05:19:13.899Z,8.33
2023-01-28T05:21:43.593Z,9.00
2023-01-28T05:24:35.526Z,7.80
2023-01-28T05:27:04.451Z,8.10
2023-01-28T05:29:33.879Z,7.73
2023-01-28T05:32:01.777Z,8.00
2023-01-28T05:34:30.828Z,7.90
2023-01-28T05:37:01.294Z,7.97
2023-01-28T05:39:32.385Z,8.13
2023-01-28T05:42:01.839Z,7.67
2023-01-28T05:44:30.530Z,8.33
2023-01-28T05:47:18.661Z,8.03
2023-01-28T05:49:56.810Z,8.40
2023-01-28T05:52:33.513Z,8.50
2023-01-28T05:55:02.344Z,7.63
2023-01-28T05:57:31.592Z,8.20
2023-01-28T05:59:59.448Z,7.33
2023-01-28T06:02:27.928Z,7.73
2023-01-28T06:04:58.343Z,7.23
2023-01-28T06:07:26.183Z,7.67
2023-01-28T06:09:53.963Z,7.50
2023-01-28T06:12:23.083Z,7.43
2023-01-28T06:15:13.087Z,7.47
2023-01-28T06:18:13.144Z,7.90
2023-01-28T06:20:41.846Z,7.77
2023-01-28T06:23:09.627Z,7.63
2023-01-28T06:25:37.557Z,7.03
2023-01-28T06:28:10.773Z,7.40
2023-01-28T06:30:40.004Z,6.97
2023-01-28T06:33:07.830Z,7.10
2023-01-28T06:35:36.714Z,6.40
2023-01-28T06:38:05.125Z,7.20
2023-01-28T06:40:32.919Z,6.40
2023-01-28T06:43:00.714Z,6.40
2023-01-28T06:45:28.450Z,6.07
2023-01-28T06:47:57.621Z,5.80
2023-01-28T06:50:25.767Z,5.10
2023-01-28T06:52:53.532Z,5.87
2023-01-28T06:55:21.271Z,6.47
2023-01-28T06:57:49.035Z,5.70
2023-01-28T07:00:17.790Z,5.70
2023-01-28T07:02:45.884Z,5.73
2023-01-28T07:05:15.168Z,5.17
2023-01-28T07:07:42.886Z,5.53
2023-01-28T07:10:11.959Z,5.30
2023-01-28T07:12:40.089Z,6.20
2023-01-28T07:15:10.845Z,5.27
2023-01-28T07:17:40.469Z,5.47
2023-01-28T07:20:09.320Z,4.70
2023-01-28T07:22:39.526Z,5.70
2023-01-28T07:25:08.362Z,5.30
2023-01-28T07:27:36.461Z,5.60
2023-01-28T07:30:04.493Z,5.30
2023-01-28T07:32:32.387Z,6.27
2023-01-28T07:35:00.114Z,6.53
2023-01-28T07:37:27.858Z,6.50
2023-01-28T07:39:56.996Z,6.30
2023-01-28T07:42:24.855Z,6.30
2023-01-28T07:44:53.863Z,6.73
2023-01-28T07:47:21.736Z,6.30
2023-01-28T07:49:49.635Z,6.27
2023-01-28T07:52:17.371Z,6.13
2023-01-28T07:54:45.170Z,5.73
2023-01-28T07:57:14.357Z,5.83
2023-01-28T07:59:42.121Z,7.00
2023-01-28T08:02:13.298Z,5.63
2023-01-28T08:04:41.556Z,5.00
2023-01-28T08:07:09.437Z,7.10
2023-01-28T08:09:37.257Z,5.40
2023-01-28T08:12:05.570Z,4.87
2023-01-28T08:14:34.686Z,4.90
2023-01-28T08:17:02.620Z,8.30
2023-01-28T08:19:30.343Z,6.00
2023-01-28T08:21:58.112Z,5.13
2023-01-28T08:24:26.050Z,5.20
2023-01-28T08:26:53.836Z,5.33
2023-01-28T08:29:21.841Z,5.50
2023-01-28T08:31:51.032Z,9.00
2023-01-28T08:34:18.849Z,11.67
2023-01-28T08:36:46.650Z,4.10
2023-01-28T08:39:14.492Z,4.60
2023-01-28T08:41:42.289Z,4.20
2023-01-28T08:44:10.017Z,5.80
2023-01-28T08:46:37.855Z,4.30
2023-01-28T08:49:07.018Z,4.30
2023-01-28T08:51:34.850Z,6.73
2023-01-28T08:54:02.749Z,11.93
2023-01-28T08:56:31.461Z,4.77
2023-01-28T08:58:59.205Z,4.80
2023-01-28T09:01:29.358Z,5.70
2023-01-28T09:03:57.336Z,7.50
2023-01-28T09:06:26.588Z,4.43
2023-01-28T09:08:57.394Z,4.23
2023-01-28T09:11:25.355Z,4.63
2023-01-28T09:13:53.236Z,4.27
2023-01-28T09:16:21.082Z,3.83
2023-01-28T09:18:49.348Z,4.00
2023-01-28T09:21:17.350Z,4.30
2023-01-28T09:23:46.537Z,4.53
2023-01-28T09:26:14.944Z,4.50
2023-01-28T09:28:42.828Z,4.40
2023-01-28T09:31:12.773Z,4.53
2023-01-28T09:33:41.643Z,4.47
2023-01-28T09:36:12.532Z,4.13
2023-01-28T09:38:40.401Z,4.27
2023-01-28T09:41:26.109Z,4.40
2023-01-28T09:44:25.372Z,4.10
2023-01-28T09:46:53.473Z,4.03
2023-01-28T09:49:28.998Z,3.90
2023-01-28T09:51:57.828Z,4.53
2023-01-28T09:54:34.453Z,4.30
2023-01-28T09:57:09.592Z,4.03
2023-01-28T09:59:38.072Z,3.93
2023-01-28T10:02:27.221Z,4.30
2023-01-28T10:05:04.481Z,4.00
2023-01-28T10:07:41.700Z,3.63
2023-01-28T10:10:15.003Z,3.97
2023-01-28T10:13:04.826Z,4.00
2023-01-28T10:15:58.216Z,4.23
2023-01-28T10:18:34.281Z,4.10
2023-01-28T10:21:09.371Z,4.80
2023-01-28T10:23:58.436Z,4.13
2023-01-28T10:26:31.301Z,5.13
2023-01-28T10:29:06.053Z,4.60
2023-01-28T10:31:38.852Z,4.50
2023-01-28T10:34:06.993Z,4.33
2023-01-28T10:36:35.434Z,4.40
2023-01-28T10:39:03.457Z,4.70
2023-01-28T10:41:31.241Z,4.40
2023-01-28T10:44:00.660Z,4.40
2023-01-28T10:46:33.392Z,4.23
2023-01-28T10:49:11.496Z,4.27
2023-01-28T10:51:40.845Z,4.77
2023-01-28T10:54:20.728Z,5.00
2023-01-28T10:56:51.435Z,4.37
2023-01-28T10:59:23.747Z,4.17
2023-01-28T11:01:54.152Z,5.07
2023-01-28T11:04:25.657Z,4.10
2023-01-28T11:07:00.160Z,4.30
2023-01-28T11:09:30.836Z,4.50
2023-01-28T11:11:59.662Z,4.07
2023-01-28T11:14:28.947Z,4.23
2023-01-28T11:16:59.327Z,4.40
2023-01-28T11:19:33.528Z,4.33
2023-01-28T11:22:01.911Z,4.70
2023-01-28T11:24:33.291Z,5.03
2023-01-28T11:27:16.175Z,5.30
2023-01-28T11:29:46.036Z,6.03
2023-01-28T11:32:22.146Z,7.80
2023-01-28T11:34:51.477Z,8.63
2023-01-28T11:37:22.793Z,8.27
2023-01-28T11:39:50.798Z,9.37
2023-01-28T11:42:20.779Z,9.43
2023-01-28T11:44:51.187Z,10.13
2023-01-28T11:47:35.419Z,10.80
2023-01-28T11:50:23.999Z,11.17
2023-01-28T11:53:07.029Z,11.10
2023-01-28T11:55:46.312Z,10.97
2023-01-28T11:58:24.040Z,9.80
2023-01-28T12:01:03.889Z,8.10
2023-01-28T12:03:49.961Z,8.50
2023-01-28T12:06:40.066Z,9.90
2023-01-28T12:09:17.793Z,7.93
2023-01-28T12:12:13.570Z,8.90
2023-01-28T12:15:05.904Z,8.33
2023-01-28T12:17:48.217Z,8.27
2023-01-28T12:20:25.767Z,8.17
2023-01-28T12:23:19.437Z,7.43
2023-01-28T12:26:09.006Z,7.93
2023-01-28T12:28:52.584Z,7.80
2023-01-28T12:31:40.180Z,7.00
2023-01-28T12:34:41.166Z,7.60
2023-01-28T12:37:17.826Z,8.10
2023-01-28T12:39:59.229Z,8.20
2023-01-28T12:42:36.778Z,8.13
2023-01-28T12:45:16.374Z,9.27
2023-01-28T12:47:49.311Z,9.50
2023-01-28T12:50:23.845Z,10.93
2023-01-28T12:52:56.990Z,9.40
2023-01-28T12:55:39.612Z,9.63
2023-01-28T12:58:17.059Z,9.70
2023-01-28T13:00:49.684Z,9.97
2023-01-28T13:03:23.574Z,8.97
2023-01-28T13:05:56.965Z,9.13
2023-01-28T13:08:26.629Z,9.57
2023-01-28T13:10:56.086Z,9.60
2023-01-28T13:13:30.350Z,9.43
2023-01-28T13:15:58.546Z,9.50
2023-01-28T13:18:35.328Z,9.10
2023-01-28T13:21:06.586Z,9.10
2023-01-28T13:23:40.363Z,9.23
2023-01-28T13:26:27.748Z,9.33
2023-01-28T13:29:08.182Z,9.30
2023-01-28T13:31:40.207Z,15.90
2023-01-28T13:34:09.585Z,9.90
2023-01-28T13:36:45.878Z,9.53
2023-01-28T13:39:20.607Z,9.97
2023-01-28T13:41:51.835Z,10.10
2023-01-28T13:44:29.184Z,9.73
2023-01-28T13:46:59.699Z,10.10
2023-01-28T13:49:33.866Z,15.17
2023-01-28T13:52:09.121Z,11.37
2023-01-28T13:54:39.785Z,10.70
2023-01-28T13:58:13.117Z,9.70
2023-01-28T14:00:53.137Z,10.50
2023-01-28T14:03:50.127Z,10.47
2023-01-28T14:06:37.654Z,10.17
2023-01-28T14:09:23.769Z,9.80
2023-01-28T14:12:29.189Z,10.43
2023-01-28T14:15:17.347Z,9.37
2023-01-28T14:17:47.126Z,9.40
2023-01-28T14:20:19.675Z,9.43
2023-01-28T14:22:48.495Z,9.27
2023-01-28T14:25:24.702Z,8.90
2023-01-28T14:27:54.748Z,8.90
2023-01-28T14:30:29.989Z,9.00
2023-01-28T14:32:57.956Z,9.90
2023-01-28T14:35:32.562Z,10.10
2023-01-28T14:38:07.806Z,9.60
2023-01-28T14:40:40.469Z,9.80
2023-01-28T14:43:10.125Z,9.33
2023-01-28T14:45:57.505Z,9.13
2023-01-28T14:48:27.480Z,9.20
2023-01-28T14:51:09.824Z,8.60
2023-01-28T14:54:03.012Z,9.33
2023-01-28T14:56:44.345Z,9.07
2023-01-28T14:59:19.460Z,8.93
2023-01-28T15:01:48.998Z,8.30
2023-01-28T15:04:25.316Z,8.13
2023-01-28T15:06:53.199Z,8.80
2023-01-28T15:09:24.605Z,8.93
2023-01-28T15:11:58.114Z,9.50
2023-01-28T15:14:28.831Z,9.53
2023-01-28T15:16:57.380Z,11.93
2023-01-28T15:19:28.985Z,9.18
2023-01-28T15:21:58.582Z,9.60
2023-01-28T15:24:26.908Z,8.90
2023-01-28T15:26:56.168Z,9.40
2023-01-28T15:29:31.538Z,9.47
2023-01-28T15:32:00.162Z,9.30
2023-01-28T15:34:30.309Z,9.43
2023-01-28T15:36:58.746Z,10.00
2023-01-28T15:39:28.598Z,13.53
2023-01-28T15:42:00.288Z,15.87
2023-01-28T15:44:31.278Z,9.60
2023-01-28T15:47:00.390Z,10.07
2023-01-28T15:49:32.361Z,11.33
2023-01-28T15:52:00.631Z,14.30
2023-01-28T15:54:30.429Z,11.70
2023-01-28T15:57:10.493Z,12.00
2023-01-28T15:59:38.270Z,13.40
2023-01-28T16:02:18.542Z,13.37
2023-01-28T16:04:57.226Z,13.10
2023-01-28T16:07:25.288Z,13.67
2023-01-28T16:09:54.198Z,13.50
2023-01-28T16:12:24.310Z,15.07
2023-01-28T16:14:55.298Z,13.83
2023-01-28T16:17:25.957Z,13.83
2023-01-28T16:19:59.842Z,13.37
2023-01-28T16:22:34.445Z,13.93
2023-01-28T16:25:03.144Z,13.77
2023-01-28T16:27:32.400Z,15.03
2023-01-28T16:30:00.411Z,15.00
2023-01-28T16:32:30.536Z,16.90
2023-01-28T16:34:58.464Z,19.27
2023-01-28T16:39:55.161Z,19.50
2023-01-28T16:42:23.021Z,20.13
2023-01-28T16:44:52.304Z,20.93
2023-01-28T16:47:20.127Z,20.80
2023-01-28T16:49:47.972Z,20.87
2023-01-28T16:52:17.191Z,19.70
2023-01-28T16:54:46.464Z,21.07
2023-01-28T16:57:16.566Z,20.80
2023-01-28T16:59:44.530Z,21.37
2023-01-28T17:02:15.436Z,20.80
2023-01-28T17:04:43.334Z,20.77
2023-01-28T17:07:11.320Z,20.97
2023-01-28T17:09:39.130Z,22.07
2023-01-28T17:12:07.579Z,21.40
2023-01-28T17:14:35.443Z,22.13
2023-01-28T17:17:03.241Z,20.87
2023-01-28T17:19:32.484Z,21.03
2023-01-28T17:22:00.358Z,23.67
2023-01-28T17:24:30.375Z,29.90
2023-01-28T17:26:58.982Z,23.37
2023-01-28T17:29:27.070Z,28.33
2023-01-28T17:31:54.872Z,27.03
2023-01-28T17:34:22.866Z,26.10
2023-01-28T17:36:52.001Z,25.40
2023-01-28T17:39:19.773Z,25.57
2023-01-28T17:41:47.544Z,25.27
2023-01-28T17:44:15.376Z,26.00
2023-01-28T17:46:43.313Z,27.00
2023-01-28T17:49:11.497Z,26.67
2023-01-28T17:51:39.262Z,25.40
2023-01-28T17:54:08.472Z,26.70
2023-01-28T17:56:36.282Z,25.03
2023-01-28T17:59:06.497Z,24.90
2023-01-28T18:01:37.088Z,24.23
2023-01-28T18:04:05.834Z,26.33
2023-01-28T18:06:34.153Z,29.03
2023-01-28T18:09:02.055Z,27.73
2023-01-28T18:11:32.842Z,29.50
2023-01-28T18:14:00.711Z,28.60
2023-01-28T18:16:28.530Z,32.57
2023-01-28T18:18:56.282Z,32.87
2023-01-28T18:21:43.046Z,29.47
2023-01-28T18:24:14.619Z,44.57
2023-01-28T18:26:43.776Z,49.63
2023-01-28T18:29:16.498Z,45.30
2023-01-28T18:31:44.387Z,45.63
2023-01-28T18:34:12.488Z,42.20
2023-01-28T18:36:40.360Z,45.03
2023-01-28T18:39:08.142Z,42.63
2023-01-28T18:41:35.925Z,40.80
2023-01-28T18:44:05.421Z,42.73
2023-01-28T18:46:33.254Z,39.03
2023-01-28T18:49:01.153Z,35.57
2023-01-28T18:51:30.658Z,35.20
2023-01-28T18:53:59.863Z,34.37
2023-01-28T18:56:28.189Z,36.53
2023-01-28T18:58:57.384Z,36.67
2023-01-28T19:01:27.143Z,34.03
2023-01-28T19:03:55.818Z,34.20
2023-01-28T19:06:24.838Z,33.73
2023-01-28T19:08:54.510Z,33.90
2023-01-28T19:11:23.191Z,34.03
2023-01-28T19:13:51.200Z,33.77
2023-01-28T19:16:19.226Z,34.13
2023-01-28T19:18:54.231Z,35.87
2023-01-28T19:21:22.636Z,48.97
2023-01-28T19:23:56.190Z,44.47
2023-01-28T19:26:25.212Z,37.63
2023-01-28T19:28:53.023Z,36.87
2023-01-28T19:31:22.393Z,40.20
2023-01-28T19:33:54.381Z,40.73
2023-01-28T19:36:24.383Z,39.43
2023-01-28T19:38:52.164Z,39.93
2023-01-28T19:41:20.023Z,38.27
2023-01-28T19:43:48.385Z,38.97
2023-01-28T19:46:18.015Z,37.53
2023-01-28T19:48:46.505Z,37.37
2023-01-28T19:51:16.123Z,37.50
2023-01-28T19:53:45.924Z,36.77
2023-01-28T19:56:15.532Z,38.30
2023-01-28T19:58:44.632Z,38.47
2023-01-28T20:01:14.603Z,39.97
2023-01-28T20:03:43.426Z,41.30
2023-01-28T20:06:13.751Z,42.40
2023-01-28T20:08:42.012Z,41.70
2023-01-28T20:11:13.388Z,41.53
2023-01-28T20:13:42.903Z,41.87
2023-01-28T20:16:16.436Z,41.60
2023-01-28T20:18:44.512Z,40.13
2023-01-28T20:21:12.306Z,39.03
2023-01-28T20:23:40.041Z,39.83
2023-01-28T20:26:07.829Z,39.73
2023-01-28T20:28:36.970Z,39.70
2023-01-28T20:31:06.354Z,38.60
2023-01-28T20:33:34.207Z,38.87
2023-01-28T20:36:02.946Z,37.50
2023-01-28T20:38:31.109Z,38.70
2023-01-28T20:40:58.948Z,37.37
2023-01-28T20:43:28.639Z,38.10
2023-01-28T20:46:04.837Z,37.60
2023-01-28T20:48:33.297Z,39.50
2023-01-28T20:51:06.369Z,41.30
2023-01-28T20:53:34.264Z,42.23
2023-01-28T20:56:02.059Z,45.47
2023-01-28T20:58:29.978Z,45.47
2023-01-28T21:00:57.816Z,60.77
2023-01-28T21:03:27.832Z,52.93
2023-01-28T21:05:55.705Z,53.90
2023-01-28T21:08:23.959Z,47.53
2023-01-28T21:10:51.706Z,49.17
2023-01-28T21:13:20.494Z,46.20
2023-01-28T21:15:55.966Z,47.00
2023-01-28T21:18:24.483Z,45.07
2023-01-28T21:20:55.013Z,44.20
2023-01-28T21:23:23.879Z,41.67
2023-01-28T21:25:52.458Z,41.67
2023-01-28T21:28:21.061Z,40.63
2023-01-28T21:30:48.837Z,43.23
2023-01-28T21:33:16.729Z,42.93
2023-01-28T21:35:44.869Z,40.70
2023-01-28T21:38:14.202Z,40.73
2023-01-28T21:40:42.158Z,40.47
2023-01-28T21:43:12.489Z,40.97
2023-01-28T21:45:41.210Z,41.57
2023-01-28T21:48:08.927Z,40.37
2023-01-28T21:50:56.827Z,39.23
2023-01-28T21:53:25.969Z,40.90
2023-01-28T21:55:53.798Z,42.27
2023-01-28T21:58:39.216Z,42.30
2023-01-28T22:01:10.620Z,40.30
2023-01-28T22:03:38.411Z,39.47
2023-01-28T22:06:06.707Z,39.30
2023-01-28T22:08:35.918Z,36.90
2023-01-28T22:11:05.033Z,36.53
2023-01-28T22:13:33.533Z,36.13
2023-01-28T22:16:01.571Z,36.47
2023-01-28T22:18:29.387Z,37.50
2023-01-28T22:20:58.495Z,38.27
2023-01-28T22:23:26.461Z,38.50
2023-01-28T22:25:55.819Z,37.93
2023-01-28T22:28:23.774Z,38.10
2023-01-28T22:30:51.585Z,36.83
2023-01-28T22:33:19.428Z,37.30
2023-01-28T22:35:47.440Z,37.53
2023-01-28T22:38:15.853Z,36.17
2023-01-28T22:40:43.603Z,37.97
2023-01-28T22:43:12.763Z,38.10
2023-01-28T22:45:40.557Z,40.07
2023-01-28T22:48:08.266Z,38.63
2023-01-28T22:50:36.095Z,39.67
2023-01-28T22:53:04.111Z,42.63
2023-01-28T22:55:33.494Z,43.33
2023-01-28T22:58:01.563Z,43.03
2023-01-28T23:00:30.727Z,41.70
2023-01-28T23:02:58.523Z,41.57
2023-01-28T23:05:27.158Z,40.43
2023-01-28T23:08:10.410Z,40.13
2023-01-28T23:10:38.736Z,38.33
2023-01-28T23:13:07.232Z,40.80
2023-01-28T23:15:53.682Z,39.23
2023-01-28T23:18:42.978Z,39.13
2023-01-28T23:21:35.274Z,40.07
2023-01-28T23:24:22.040Z,41.77
2023-01-28T23:26:54.504Z,38.67
2023-01-28T23:29:24.762Z,38.57
2023-01-28T23:32:00.906Z,40.80
2023-01-28T23:34:31.861Z,39.90
2023-01-28T23:36:59.665Z,40.23
2023-01-28T23:39:27.599Z,40.37
2023-01-28T23:41:55.396Z,40.67
2023-01-28T23:44:26.666Z,38.10
2023-01-28T23:46:56.350Z,38.57
2023-01-28T23:49:24.281Z,38.33
2023-01-28T23:51:52.075Z,38.40
2023-01-28T23:54:19.987Z,39.70
2023-01-28T23:56:47.767Z,38.70
2023-01-28T23:59:15.606Z,38.30
